createdAt,value
2022-08-03T00:02:12.158Z,21.27
2022-08-03T00:03:11.756Z,21.25
2022-08-03T00:05:15.740Z,21.22
2022-08-03T00:06:15.761Z,21.25
2022-08-03T00:08:08.742Z,21.19
2022-08-03T00:09:08.739Z,21.21
2022-08-03T00:11:12.766Z,21.12
2022-08-03T00:12:12.805Z,21.07
2022-08-03T00:14:17.283Z,20.99
2022-08-03T00:15:17.183Z,21.03
2022-08-03T00:17:10.310Z,20.97
2022-08-03T00:18:09.795Z,21.13
2022-08-03T00:20:13.833Z,21.01
2022-08-03T00:21:13.858Z,20.95
2022-08-03T00:24:00.388Z,20.99
2022-08-03T00:24:59.955Z,20.98
2022-08-03T00:26:52.906Z,20.99
2022-08-03T00:27:52.927Z,20.95
2022-08-03T00:29:59.780Z,20.94
2022-08-03T00:30:56.980Z,20.97
2022-08-03T00:33:01.005Z,20.91
2022-08-03T00:34:03.560Z,20.98
2022-08-03T00:36:05.524Z,20.80
2022-08-03T00:37:05.068Z,20.80
2022-08-03T00:39:09.091Z,20.82
2022-08-03T00:40:09.109Z,20.85
2022-08-03T00:42:13.922Z,20.84
2022-08-03T00:43:13.151Z,20.85
2022-08-03T00:45:17.654Z,20.74
2022-08-03T00:46:21.356Z,20.74
2022-08-03T00:48:19.694Z,20.76
2022-08-03T00:49:10.421Z,20.79
2022-08-03T00:51:14.865Z,20.73
2022-08-03T00:52:14.412Z,20.77
2022-08-03T00:54:18.938Z,20.73
2022-08-03T00:55:18.958Z,20.73
2022-08-03T00:56:18.983Z,20.73
2022-08-03T00:57:19.012Z,20.73
2022-08-03T00:58:19.047Z,20.69
2022-08-03T00:59:19.074Z,20.58
2022-08-03T01:00:19.102Z,20.57
2022-08-03T01:01:19.242Z,20.67
2022-08-03T01:02:19.161Z,20.62
2022-08-03T01:03:19.191Z,20.67
2022-08-03T01:04:19.215Z,20.57
2022-08-03T01:05:19.243Z,20.61
2022-08-03T01:06:19.277Z,20.64
2022-08-03T01:07:19.301Z,20.55
2022-08-03T01:08:19.332Z,20.59
2022-08-03T01:09:19.361Z,20.57
2022-08-03T01:10:19.386Z,20.58
2022-08-03T01:11:19.443Z,20.55
2022-08-03T01:12:19.445Z,20.51
2022-08-03T01:14:02.089Z,20.48
2022-08-03T01:14:20.225Z,20.43
2022-08-03T01:15:19.532Z,20.51
2022-08-03T01:16:19.559Z,20.47
2022-08-03T01:17:19.590Z,20.41
2022-08-03T01:18:19.620Z,20.42
2022-08-03T01:19:19.645Z,20.42
2022-08-03T01:20:19.672Z,20.42
2022-08-03T01:21:19.703Z,20.50
2022-08-03T01:22:19.730Z,20.43
2022-08-03T01:23:19.761Z,20.36
2022-08-03T01:24:19.789Z,20.39
2022-08-03T01:25:19.815Z,20.38
2022-08-03T01:26:19.854Z,20.35
2022-08-03T01:27:19.873Z,20.42
2022-08-03T01:28:19.903Z,20.50
2022-08-03T01:29:19.932Z,20.42
2022-08-03T01:30:19.966Z,20.47
2022-08-03T01:31:19.989Z,20.47
2022-08-03T01:33:00.127Z,20.43
2022-08-03T01:33:20.045Z,20.42
2022-08-03T01:34:20.072Z,20.38
2022-08-03T01:35:20.108Z,20.36
2022-08-03T01:36:20.131Z,20.29
2022-08-03T01:37:20.162Z,20.21
2022-08-03T01:38:20.188Z,20.29
2022-08-03T01:39:20.218Z,20.26
2022-08-03T01:40:20.245Z,20.24
2022-08-03T01:41:20.276Z,20.28
2022-08-03T01:42:20.304Z,20.18
2022-08-03T01:43:55.117Z,20.17
2022-08-03T01:44:29.069Z,20.18
2022-08-03T01:45:20.387Z,20.20
2022-08-03T01:46:20.435Z,20.24
2022-08-03T01:47:20.444Z,20.16
2022-08-03T01:48:20.474Z,20.20
2022-08-03T01:49:20.560Z,20.20
2022-08-03T01:50:20.529Z,20.26
2022-08-03T01:51:20.558Z,20.29
2022-08-03T01:52:20.641Z,20.26
2022-08-03T01:53:20.621Z,20.31
2022-08-03T01:54:20.644Z,20.29
2022-08-03T01:55:20.674Z,20.23
2022-08-03T01:56:20.699Z,20.26
2022-08-03T01:57:20.728Z,20.20
2022-08-03T01:58:20.756Z,20.14
2022-08-03T01:59:20.787Z,20.16
2022-08-03T02:00:20.813Z,20.28
2022-08-03T02:01:20.915Z,20.23
2022-08-03T02:02:32.856Z,20.13
2022-08-03T02:03:20.897Z,20.11
2022-08-03T02:04:20.928Z,20.02
2022-08-03T02:05:20.956Z,20.02
2022-08-03T02:07:02.856Z,19.98
2022-08-03T02:07:21.013Z,19.98
2022-08-03T02:08:21.042Z,20.05
2022-08-03T02:09:21.071Z,20.02
2022-08-03T02:10:23.590Z,20.01
2022-08-03T02:11:21.124Z,20.11
2022-08-03T02:12:21.155Z,20.05
2022-08-03T02:13:21.181Z,20.03
2022-08-03T02:14:21.211Z,19.92
2022-08-03T02:15:21.247Z,19.91
2022-08-03T02:16:21.266Z,19.98
2022-08-03T02:17:39.102Z,19.91
2022-08-03T02:18:21.323Z,19.92
2022-08-03T02:19:21.349Z,19.98
2022-08-03T02:20:21.375Z,19.95
2022-08-03T02:21:56.849Z,19.91
2022-08-03T02:22:21.434Z,19.86
2022-08-03T02:23:21.466Z,19.83
2022-08-03T02:24:21.488Z,19.78
2022-08-03T02:25:21.519Z,19.91
2022-08-03T02:26:21.546Z,19.80
2022-08-03T02:27:21.580Z,19.83
2022-08-03T02:28:21.601Z,19.80
2022-08-03T02:29:21.636Z,19.84
2022-08-03T02:30:21.662Z,19.84
2022-08-03T02:31:21.691Z,19.87
2022-08-03T02:32:21.718Z,19.84
2022-08-03T02:33:21.748Z,19.80
2022-08-03T02:34:21.774Z,19.80
2022-08-03T02:35:21.803Z,19.83
2022-08-03T02:36:21.828Z,19.77
2022-08-03T02:37:21.861Z,19.83
2022-08-03T02:38:21.885Z,19.87
2022-08-03T02:39:21.913Z,19.87
2022-08-03T02:40:21.942Z,19.77
2022-08-03T02:41:21.990Z,19.78
2022-08-03T02:42:22.192Z,19.86
2022-08-03T02:43:22.031Z,19.66
2022-08-03T02:44:22.057Z,19.74
2022-08-03T02:45:22.086Z,19.74
2022-08-03T02:46:22.105Z,19.69
2022-08-03T02:47:22.140Z,19.73
2022-08-03T02:48:22.164Z,19.74
2022-08-03T02:49:40.912Z,19.73
2022-08-03T02:50:22.332Z,19.71
2022-08-03T02:51:22.253Z,19.66
2022-08-03T02:52:22.277Z,19.71
2022-08-03T02:53:22.309Z,19.68
2022-08-03T02:54:22.340Z,19.71
2022-08-03T02:55:22.359Z,19.69
2022-08-03T02:56:22.399Z,19.65
2022-08-03T02:57:22.417Z,19.68
2022-08-03T02:58:22.446Z,19.71
2022-08-03T02:59:22.475Z,19.59
2022-08-03T03:00:27.669Z,19.66
2022-08-03T03:01:22.600Z,19.61
2022-08-03T03:02:22.561Z,19.69
2022-08-03T03:03:22.591Z,19.68
2022-08-03T03:04:22.618Z,19.66
2022-08-03T03:05:56.364Z,19.59
2022-08-03T03:06:22.671Z,19.65
2022-08-03T03:07:22.697Z,19.73
2022-08-03T03:08:27.462Z,19.68
2022-08-03T03:09:22.754Z,19.73
2022-08-03T03:10:22.789Z,19.66
2022-08-03T03:11:22.812Z,19.71
2022-08-03T03:12:22.839Z,19.69
2022-08-03T03:13:22.867Z,19.73
2022-08-03T03:14:33.934Z,19.73
2022-08-03T03:15:22.926Z,19.71
2022-08-03T03:16:22.954Z,19.69
2022-08-03T03:17:22.981Z,19.76
2022-08-03T03:18:23.220Z,19.73
2022-08-03T03:19:23.034Z,19.73
2022-08-03T03:20:29.574Z,19.73
2022-08-03T03:21:23.089Z,19.74
2022-08-03T03:22:23.118Z,19.71
2022-08-03T03:23:23.147Z,19.68
2022-08-03T03:24:23.188Z,19.68
2022-08-03T03:25:23.208Z,19.69
2022-08-03T03:26:23.231Z,19.65
2022-08-03T03:27:23.263Z,19.66
2022-08-03T03:28:23.286Z,19.66
2022-08-03T03:29:23.316Z,19.63
2022-08-03T03:30:23.344Z,19.59
2022-08-03T03:31:23.372Z,19.59
2022-08-03T03:32:23.396Z,19.58
2022-08-03T03:33:23.428Z,19.56
2022-08-03T03:34:23.455Z,19.58
2022-08-03T03:35:23.482Z,19.58
2022-08-03T03:36:23.510Z,19.51
2022-08-03T03:37:23.541Z,19.36
2022-08-03T03:38:23.590Z,19.46
2022-08-03T03:39:23.591Z,19.33
2022-08-03T03:40:23.616Z,19.37
2022-08-03T03:41:23.654Z,19.29
2022-08-03T03:42:23.702Z,19.39
2022-08-03T03:43:23.701Z,19.33
2022-08-03T03:44:23.733Z,19.37
2022-08-03T03:45:23.761Z,19.39
2022-08-03T03:46:23.789Z,19.33
2022-08-03T03:47:32.721Z,19.44
2022-08-03T03:48:23.843Z,19.40
2022-08-03T03:49:23.933Z,19.44
2022-08-03T03:50:23.899Z,19.37
2022-08-03T03:51:23.923Z,19.37
2022-08-03T03:52:23.954Z,19.47
2022-08-03T03:53:23.985Z,19.40
2022-08-03T03:54:25.510Z,19.47
2022-08-03T03:55:24.037Z,19.44
2022-08-03T03:56:24.075Z,19.40
2022-08-03T03:57:24.094Z,19.46
2022-08-03T03:58:24.962Z,19.47
2022-08-03T03:59:24.151Z,19.47
2022-08-03T04:00:24.180Z,19.46
2022-08-03T04:01:24.249Z,19.44
2022-08-03T04:02:24.232Z,19.59
2022-08-03T04:03:24.261Z,19.59
2022-08-03T04:04:24.290Z,19.56
2022-08-03T04:05:24.316Z,19.58
2022-08-03T04:06:24.345Z,19.69
2022-08-03T04:07:24.376Z,19.63
2022-08-03T04:08:24.397Z,19.76
2022-08-03T04:09:24.430Z,19.76
2022-08-03T04:10:24.458Z,19.68
2022-08-03T04:11:29.017Z,19.81
2022-08-03T04:12:24.512Z,19.92
2022-08-03T04:13:24.539Z,20.06
2022-08-03T04:14:24.589Z,20.17
2022-08-03T04:15:24.593Z,20.28
2022-08-03T04:16:24.620Z,20.36
2022-08-03T04:17:24.650Z,20.41
2022-08-03T04:18:24.680Z,20.58
2022-08-03T04:19:24.707Z,20.55
2022-08-03T04:20:24.735Z,20.69
2022-08-03T04:21:24.764Z,20.84
2022-08-03T04:22:24.795Z,20.91
2022-08-03T04:23:24.841Z,21.03
2022-08-03T04:24:26.598Z,21.04
2022-08-03T04:25:24.878Z,21.06
2022-08-03T04:26:24.907Z,21.10
2022-08-03T04:27:24.934Z,21.19
2022-08-03T04:28:30.519Z,21.44
2022-08-03T04:29:24.991Z,21.71
2022-08-03T04:30:25.021Z,21.98
2022-08-03T04:31:25.046Z,22.24
2022-08-03T04:32:25.078Z,22.60
2022-08-03T04:33:25.936Z,22.80
2022-08-03T04:34:25.136Z,23.04
2022-08-03T04:35:25.168Z,23.43
2022-08-03T04:36:25.195Z,23.63
2022-08-03T04:37:25.225Z,23.83
2022-08-03T04:38:25.250Z,24.13
2022-08-03T04:39:25.278Z,24.35
2022-08-03T04:40:25.309Z,24.34
2022-08-03T04:41:25.339Z,24.42
2022-08-03T04:42:25.418Z,24.49
2022-08-03T04:43:25.398Z,24.53
2022-08-03T04:44:28.167Z,24.53
2022-08-03T04:45:25.459Z,24.88
2022-08-03T04:46:25.488Z,25.06
2022-08-03T04:47:25.518Z,25.28
2022-08-03T04:48:25.549Z,25.64
2022-08-03T04:49:25.635Z,25.77
2022-08-03T04:50:25.616Z,25.94
2022-08-03T04:51:25.639Z,26.10
2022-08-03T04:52:25.671Z,26.21
2022-08-03T04:53:25.701Z,26.47
2022-08-03T04:54:25.739Z,26.52
2022-08-03T04:55:25.763Z,26.62
2022-08-03T04:56:25.795Z,26.80
2022-08-03T04:57:25.826Z,26.76
2022-08-03T04:58:25.859Z,26.62
2022-08-03T04:59:25.888Z,26.57
2022-08-03T05:00:25.921Z,26.40
2022-08-03T05:01:25.988Z,26.29
2022-08-03T05:02:25.984Z,26.09
2022-08-03T05:03:26.029Z,25.91
2022-08-03T05:04:26.047Z,25.67
2022-08-03T05:05:26.077Z,25.36
2022-08-03T05:06:26.114Z,25.18
2022-08-03T05:07:26.146Z,25.00
2022-08-03T05:08:28.259Z,25.02
2022-08-03T05:09:50.604Z,24.93
2022-08-03T05:10:26.236Z,24.77
2022-08-03T05:11:26.272Z,24.71
2022-08-03T05:12:28.396Z,24.49
2022-08-03T05:13:26.331Z,24.34
2022-08-03T05:14:28.077Z,24.15
2022-08-03T05:15:26.386Z,23.88
2022-08-03T05:16:26.422Z,23.73
2022-08-03T05:17:26.453Z,23.60
2022-08-03T05:18:26.486Z,23.47
2022-08-03T05:19:26.515Z,23.28
2022-08-03T05:20:26.553Z,23.42
2022-08-03T05:21:26.584Z,23.50
2022-08-03T05:22:26.620Z,23.51
2022-08-03T05:23:26.639Z,23.69
2022-08-03T05:24:26.670Z,23.69
2022-08-03T05:25:27.555Z,23.76
2022-08-03T05:26:26.739Z,23.70
2022-08-03T05:27:26.762Z,23.65
2022-08-03T05:28:26.795Z,23.57
2022-08-03T05:29:26.826Z,23.51
2022-08-03T05:30:33.670Z,23.35
2022-08-03T05:31:26.887Z,23.23
2022-08-03T05:32:26.917Z,23.10
2022-08-03T05:33:26.950Z,23.12
2022-08-03T05:34:26.980Z,23.09
2022-08-03T05:35:57.301Z,23.05
2022-08-03T05:36:27.044Z,22.92
2022-08-03T05:37:27.072Z,22.94
2022-08-03T05:38:28.782Z,22.94
2022-08-03T05:39:27.134Z,22.90
2022-08-03T05:40:27.166Z,22.75
2022-08-03T05:41:37.008Z,22.76
2022-08-03T05:42:27.228Z,22.73
2022-08-03T05:43:27.257Z,22.68
2022-08-03T05:44:27.286Z,22.67
2022-08-03T05:45:28.524Z,22.64
2022-08-03T05:46:27.347Z,22.67
2022-08-03T05:47:27.377Z,22.65
2022-08-03T05:48:27.409Z,22.57
2022-08-03T05:49:27.510Z,22.70
2022-08-03T05:50:27.469Z,22.67
2022-08-03T05:51:27.501Z,22.61
2022-08-03T05:52:27.529Z,22.67
2022-08-03T05:53:27.558Z,22.62
2022-08-03T05:54:55.492Z,22.68
2022-08-03T05:55:27.620Z,22.75
2022-08-03T05:56:27.653Z,22.68
2022-08-03T05:57:27.682Z,22.80
2022-08-03T05:58:29.973Z,22.85
2022-08-03T05:59:38.068Z,22.88
2022-08-03T06:00:27.794Z,22.94
2022-08-03T06:01:27.841Z,23.05
2022-08-03T06:02:27.836Z,23.20
2022-08-03T06:03:27.862Z,23.39
2022-08-03T06:04:27.895Z,23.50
2022-08-03T06:05:27.925Z,23.68
2022-08-03T06:06:32.073Z,23.94
2022-08-03T06:07:27.985Z,24.05
2022-08-03T06:08:28.018Z,24.37
2022-08-03T06:09:31.823Z,24.65
2022-08-03T06:10:35.230Z,25.00
2022-08-03T06:11:28.107Z,25.40
2022-08-03T06:12:28.144Z,25.57
2022-08-03T06:13:28.180Z,25.92
2022-08-03T06:14:28.210Z,26.30
2022-08-03T06:15:28.236Z,26.66
2022-08-03T06:16:28.270Z,27.02
2022-08-03T06:17:28.303Z,27.40
2022-08-03T06:18:28.337Z,27.49
2022-08-03T06:19:28.368Z,27.66
2022-08-03T06:20:28.402Z,27.79
2022-08-03T06:21:28.436Z,27.90
2022-08-03T06:22:28.469Z,28.04
2022-08-03T06:23:52.496Z,28.18
2022-08-03T06:24:28.535Z,28.48
2022-08-03T06:25:28.572Z,28.62
2022-08-03T06:26:28.603Z,28.71
2022-08-03T06:27:36.629Z,28.96
2022-08-03T06:28:52.674Z,29.16
2022-08-03T06:29:28.706Z,29.24
2022-08-03T06:30:28.744Z,29.28
2022-08-03T06:31:33.372Z,29.36
2022-08-03T06:32:28.811Z,29.18
2022-08-03T06:34:31.091Z,29.08
2022-08-03T06:34:32.473Z,29.05
2022-08-03T06:35:28.915Z,29.21
2022-08-03T06:36:28.951Z,29.34
2022-08-03T06:37:28.986Z,29.60
2022-08-03T06:38:29.021Z,29.80
2022-08-03T06:39:29.054Z,29.71
2022-08-03T06:40:29.093Z,29.68
2022-08-03T06:41:29.128Z,29.51
2022-08-03T06:42:29.162Z,29.39
2022-08-03T06:43:29.198Z,29.24
2022-08-03T06:44:29.234Z,29.24
2022-08-03T06:45:31.719Z,29.06
2022-08-03T06:46:29.306Z,29.30
2022-08-03T06:47:29.340Z,29.19
2022-08-03T06:48:29.375Z,29.27
2022-08-03T06:49:29.483Z,29.33
2022-08-03T06:50:29.445Z,29.43
2022-08-03T06:52:05.293Z,29.65
2022-08-03T06:52:37.499Z,29.85
2022-08-03T06:53:29.570Z,29.95
2022-08-03T06:54:32.904Z,30.02
2022-08-03T06:55:29.630Z,30.24
2022-08-03T06:56:29.666Z,30.37
2022-08-03T06:57:29.702Z,30.57
2022-08-03T06:58:29.740Z,30.73
2022-08-03T07:00:06.611Z,30.84
2022-08-03T07:00:29.812Z,30.84
2022-08-03T07:01:29.889Z,31.12
2022-08-03T07:02:29.887Z,31.04
2022-08-03T07:03:29.924Z,30.99
2022-08-03T07:04:29.962Z,31.09
2022-08-03T07:05:30.002Z,31.06
2022-08-03T07:06:30.036Z,30.98
2022-08-03T07:07:30.085Z,30.97
2022-08-03T07:08:33.853Z,31.20
2022-08-03T07:09:30.147Z,31.28
2022-08-03T07:10:30.189Z,31.21
2022-08-03T07:11:30.223Z,31.38
2022-08-03T07:12:30.294Z,31.26
2022-08-03T07:13:30.302Z,31.23
2022-08-03T07:14:30.336Z,31.28
2022-08-03T07:15:53.754Z,31.10
2022-08-03T07:16:30.413Z,31.19
2022-08-03T07:17:30.455Z,31.25
2022-08-03T07:18:30.525Z,31.26
2022-08-03T07:19:30.532Z,31.38
2022-08-03T07:20:32.588Z,31.23
2022-08-03T07:21:30.606Z,31.21
2022-08-03T07:22:30.646Z,31.02
2022-08-03T07:23:30.678Z,30.70
2022-08-03T07:24:30.716Z,30.55
2022-08-03T07:25:30.754Z,30.39
2022-08-03T07:26:30.791Z,30.13
2022-08-03T07:27:30.826Z,29.90
2022-08-03T07:28:30.863Z,29.65
2022-08-03T07:29:30.902Z,29.61
2022-08-03T07:30:30.940Z,29.46
2022-08-03T07:31:34.289Z,29.43
2022-08-03T07:32:31.009Z,29.31
2022-08-03T07:33:31.047Z,29.30
2022-08-03T07:34:31.081Z,29.31
2022-08-03T07:35:31.116Z,29.19
2022-08-03T07:36:31.153Z,29.15
2022-08-03T07:37:31.230Z,29.18
2022-08-03T07:38:31.221Z,29.26
2022-08-03T07:39:31.257Z,29.21
2022-08-03T07:40:31.835Z,29.26
2022-08-03T07:41:31.337Z,29.27
2022-08-03T07:42:31.363Z,29.28
2022-08-03T07:43:31.415Z,29.26
2022-08-03T07:44:31.432Z,29.18
2022-08-03T07:45:31.467Z,29.19
2022-08-03T07:46:31.501Z,29.26
2022-08-03T07:47:34.909Z,29.18
2022-08-03T07:48:31.571Z,29.26
2022-08-03T07:49:31.680Z,29.28
2022-08-03T07:50:31.642Z,29.15
2022-08-03T07:51:31.673Z,29.27
2022-08-03T07:52:31.705Z,29.14
2022-08-03T07:53:31.743Z,29.05
2022-08-03T07:54:31.787Z,29.06
2022-08-03T07:55:31.817Z,29.12
2022-08-03T07:56:31.846Z,29.26
2022-08-03T07:57:31.879Z,29.24
2022-08-03T07:58:31.934Z,29.23
2022-08-03T08:00:01.992Z,29.26
2022-08-03T08:00:31.983Z,29.34
2022-08-03T08:01:32.071Z,29.39
2022-08-03T08:02:32.048Z,29.31
2022-08-03T08:03:41.044Z,29.26
2022-08-03T08:04:32.124Z,29.26
2022-08-03T08:05:32.209Z,29.26
2022-08-03T08:06:32.186Z,29.18
2022-08-03T08:07:32.220Z,29.27
2022-08-03T08:08:32.264Z,29.33
2022-08-03T08:09:32.287Z,29.37
2022-08-03T08:10:32.319Z,29.48
2022-08-03T08:11:34.812Z,29.52
2022-08-03T08:12:32.389Z,29.52
2022-08-03T08:13:32.426Z,29.64
2022-08-03T08:14:32.458Z,29.67
2022-08-03T08:15:32.558Z,29.65
2022-08-03T08:16:32.527Z,29.70
2022-08-03T08:17:32.568Z,29.71
2022-08-03T08:18:32.590Z,29.76
2022-08-03T08:19:32.626Z,29.74
2022-08-03T08:20:32.686Z,29.86
2022-08-03T08:21:53.484Z,29.89
2022-08-03T08:22:32.731Z,30.04
2022-08-03T08:23:43.649Z,29.98
2022-08-03T08:24:32.799Z,30.05
2022-08-03T08:25:32.963Z,30.22
2022-08-03T08:26:32.865Z,30.20
2022-08-03T08:28:29.547Z,30.43
2022-08-03T08:28:33.845Z,30.35
2022-08-03T08:29:32.970Z,30.34
2022-08-03T08:30:33.007Z,30.26
2022-08-03T08:31:33.047Z,30.23
2022-08-03T08:32:33.093Z,30.23
2022-08-03T08:34:03.543Z,30.37
2022-08-03T08:34:33.142Z,30.32
2022-08-03T08:35:33.177Z,30.42
2022-08-03T08:36:33.207Z,30.42
2022-08-03T08:37:33.245Z,30.51
2022-08-03T08:38:33.280Z,30.62
2022-08-03T08:39:33.313Z,30.70
2022-08-03T08:40:33.347Z,30.80
2022-08-03T08:41:33.387Z,30.80
2022-08-03T08:42:33.420Z,30.82
2022-08-03T08:43:33.462Z,31.04
2022-08-03T08:44:33.487Z,30.97
2022-08-03T08:45:33.521Z,31.10
2022-08-03T08:46:33.556Z,31.10
2022-08-03T08:47:51.213Z,31.09
2022-08-03T08:48:33.627Z,31.10
2022-08-03T08:49:33.696Z,30.94
2022-08-03T08:50:33.701Z,31.10
2022-08-03T08:51:59.187Z,31.10
2022-08-03T08:52:33.846Z,31.13
2022-08-03T08:53:33.798Z,31.20
2022-08-03T08:54:33.834Z,31.26
2022-08-03T08:55:58.342Z,31.32
2022-08-03T08:56:33.906Z,31.25
2022-08-03T08:57:42.773Z,31.28
2022-08-03T08:58:33.973Z,31.31
2022-08-03T08:59:47.952Z,31.41
2022-08-03T09:00:34.045Z,31.46
2022-08-03T09:01:34.099Z,31.57
2022-08-03T09:02:34.114Z,31.63
2022-08-03T09:03:34.151Z,31.62
2022-08-03T09:04:34.182Z,31.78
2022-08-03T09:05:55.088Z,31.75
2022-08-03T09:06:34.250Z,31.81
2022-08-03T09:07:34.547Z,31.75
2022-08-03T09:08:34.323Z,31.85
2022-08-03T09:10:10.901Z,31.93
2022-08-03T09:10:34.395Z,31.85
2022-08-03T09:11:52.379Z,31.81
2022-08-03T09:12:41.391Z,31.73
2022-08-03T09:13:34.500Z,31.86
2022-08-03T09:14:45.393Z,31.84
2022-08-03T09:15:34.587Z,31.88
2022-08-03T09:16:34.605Z,31.84
2022-08-03T09:17:34.641Z,31.92
2022-08-03T09:18:34.676Z,31.92
2022-08-03T09:19:34.713Z,32.04
2022-08-03T09:20:34.746Z,32.10
2022-08-03T09:21:35.085Z,32.14
2022-08-03T09:22:34.833Z,32.15
2022-08-03T09:23:59.091Z,32.30
2022-08-03T09:24:41.130Z,32.28
2022-08-03T09:25:34.924Z,32.32
2022-08-03T09:26:34.969Z,32.35
2022-08-03T09:27:34.996Z,32.41
2022-08-03T09:28:58.154Z,32.38
2022-08-03T09:29:35.067Z,32.41
2022-08-03T09:30:35.415Z,32.40
2022-08-03T09:31:35.136Z,32.45
2022-08-03T09:32:35.175Z,32.35
2022-08-03T09:33:36.297Z,32.41
2022-08-03T09:34:35.243Z,32.41
2022-08-03T09:36:35.315Z,32.35
2022-08-03T09:38:12.117Z,32.32
2022-08-03T09:38:35.407Z,32.32
2022-08-03T09:39:41.895Z,32.38
2022-08-03T09:40:35.461Z,32.00
2022-08-03T09:41:35.495Z,31.85
2022-08-03T09:42:35.531Z,31.58
2022-08-03T09:43:35.566Z,31.62
2022-08-03T09:44:42.772Z,31.68
2022-08-03T09:46:29.095Z,31.84
2022-08-03T09:47:28.600Z,31.96
2022-08-03T09:49:32.757Z,32.18
2022-08-03T09:50:32.671Z,32.14
2022-08-03T09:52:50.223Z,31.99
2022-08-03T09:53:36.737Z,32.10
2022-08-03T09:56:33.541Z,32.14
2022-08-03T09:56:40.811Z,32.30
2022-08-03T09:58:45.822Z,32.40
2022-08-03T09:59:44.878Z,32.38
2022-08-03T10:01:48.923Z,32.43
2022-08-03T10:02:48.948Z,32.29
2022-08-03T10:04:53.465Z,32.13
2022-08-03T10:05:57.503Z,32.14
2022-08-03T10:07:57.056Z,31.76
2022-08-03T10:08:57.089Z,31.72
2022-08-03T10:11:01.603Z,31.84
2022-08-03T10:12:01.151Z,31.92
2022-08-03T10:14:05.185Z,32.08
2022-08-03T10:15:05.215Z,32.26
2022-08-03T10:16:58.706Z,32.44
2022-08-03T10:17:58.205Z,32.50
2022-08-03T10:20:02.372Z,32.60
2022-08-03T10:21:02.266Z,32.70
2022-08-03T10:23:06.787Z,32.92
2022-08-03T10:24:06.334Z,33.01
2022-08-03T10:26:10.378Z,33.06
2022-08-03T10:27:10.400Z,33.12
2022-08-03T10:29:14.913Z,33.35
2022-08-03T10:30:14.469Z,33.39
2022-08-03T10:32:18.521Z,33.65
2022-08-03T10:33:51.219Z,33.68
2022-08-03T10:35:23.056Z,33.69
2022-08-03T10:36:22.617Z,33.86
2022-08-03T10:38:26.672Z,33.95
2022-08-03T10:39:26.690Z,33.81
2022-08-03T10:41:31.207Z,33.68
2022-08-03T10:42:30.765Z,33.66
2022-08-03T10:44:34.808Z,33.78
2022-08-03T10:45:34.833Z,33.68
2022-08-03T10:47:39.351Z,33.68
2022-08-03T10:48:38.900Z,33.59
2022-08-03T10:50:42.952Z,33.53
2022-08-03T10:51:42.981Z,33.57
2022-08-03T10:53:50.152Z,33.54
2022-08-03T10:54:47.050Z,33.35
2022-08-03T10:56:49.574Z,33.37
2022-08-03T10:57:40.044Z,33.50
2022-08-03T10:59:45.052Z,33.42
2022-08-03T11:00:44.663Z,33.39
2022-08-03T11:01:59.467Z,33.35
2022-08-03T11:02:44.682Z,33.34
2022-08-03T11:03:44.718Z,33.28
2022-08-03T11:04:44.763Z,33.11
2022-08-03T11:05:44.794Z,33.09
2022-08-03T11:06:44.829Z,33.01
2022-08-03T11:07:44.864Z,33.04
2022-08-03T11:08:44.903Z,33.07
2022-08-03T11:09:44.937Z,33.07
2022-08-03T11:10:44.979Z,33.06
2022-08-03T11:11:45.012Z,33.12
2022-08-03T11:12:45.046Z,32.89
2022-08-03T11:13:45.089Z,32.87
2022-08-03T11:14:45.117Z,32.60
2022-08-03T11:15:45.157Z,32.59
2022-08-03T11:16:45.190Z,32.56
2022-08-03T11:17:46.433Z,32.55
2022-08-03T11:18:45.264Z,32.47
2022-08-03T11:19:57.282Z,32.40
2022-08-03T11:20:45.335Z,32.30
2022-08-03T11:21:45.371Z,32.29
2022-08-03T11:22:45.407Z,32.32
2022-08-03T11:24:04.386Z,32.37
2022-08-03T11:24:45.479Z,32.41
2022-08-03T11:25:54.649Z,32.38
2022-08-03T11:26:45.550Z,32.47
2022-08-03T11:27:45.591Z,32.52
2022-08-03T11:28:45.620Z,32.74
2022-08-03T11:29:45.660Z,32.85
2022-08-03T11:30:45.696Z,32.88
2022-08-03T11:31:50.634Z,33.11
2022-08-03T11:32:46.606Z,33.19
2022-08-03T11:33:45.803Z,33.29
2022-08-03T11:34:45.840Z,33.37
2022-08-03T11:35:45.875Z,33.42
2022-08-03T11:36:45.915Z,33.57
2022-08-03T11:38:03.263Z,33.63
2022-08-03T11:38:45.985Z,33.66
2022-08-03T11:39:46.019Z,33.60
2022-08-03T11:40:46.054Z,33.59
2022-08-03T11:41:46.090Z,33.56
2022-08-03T11:42:46.127Z,33.44
2022-08-03T11:43:46.162Z,33.54
2022-08-03T11:44:47.530Z,33.54
2022-08-03T11:45:46.239Z,33.49
2022-08-03T11:46:46.274Z,33.42
2022-08-03T11:47:50.276Z,33.50
2022-08-03T11:48:46.346Z,33.37
2022-08-03T11:49:46.390Z,33.35
2022-08-03T11:50:46.426Z,33.35
2022-08-03T11:51:46.454Z,33.34
2022-08-03T11:52:46.492Z,33.39
2022-08-03T11:53:46.533Z,33.37
2022-08-03T11:54:46.565Z,33.50
2022-08-03T11:55:46.619Z,33.45
2022-08-03T11:56:46.654Z,33.56
2022-08-03T11:59:10.767Z,33.65
2022-08-03T11:59:19.211Z,33.66
2022-08-03T11:59:46.745Z,33.51
2022-08-03T12:00:46.782Z,33.49
2022-08-03T12:01:46.814Z,33.38
2022-08-03T12:02:46.866Z,33.53
2022-08-03T12:03:46.917Z,33.51
2022-08-03T12:04:47.402Z,33.49
2022-08-03T12:05:48.090Z,33.51
2022-08-03T12:06:47.420Z,33.51
2022-08-03T12:08:03.441Z,33.56
2022-08-03T12:08:47.073Z,33.66
2022-08-03T12:09:47.107Z,33.68
2022-08-03T12:10:47.143Z,33.72
2022-08-03T12:11:57.637Z,33.69
2022-08-03T12:12:47.215Z,33.73
2022-08-03T12:14:35.602Z,33.82
2022-08-03T12:14:49.684Z,33.78
2022-08-03T12:15:47.323Z,33.81
2022-08-03T12:16:47.361Z,33.81
2022-08-03T12:17:47.397Z,33.49
2022-08-03T12:18:47.434Z,33.51
2022-08-03T12:19:47.468Z,33.37
2022-08-03T12:20:47.505Z,33.32
2022-08-03T12:21:56.877Z,33.29
2022-08-03T12:22:47.586Z,33.39
2022-08-03T12:23:47.612Z,33.38
2022-08-03T12:24:48.010Z,33.35
2022-08-03T12:25:47.685Z,33.38
2022-08-03T12:26:58.093Z,33.39
2022-08-03T12:27:47.755Z,33.41
2022-08-03T12:28:49.745Z,33.44
2022-08-03T12:29:58.470Z,33.38
2022-08-03T12:30:47.866Z,33.54
2022-08-03T12:31:47.901Z,33.41
2022-08-03T12:32:47.937Z,33.54
2022-08-03T12:33:47.977Z,33.57
2022-08-03T12:34:48.011Z,33.54
2022-08-03T12:35:52.716Z,33.59
2022-08-03T12:36:48.084Z,33.57
2022-08-03T12:37:48.121Z,33.39
2022-08-03T12:38:48.160Z,33.41
2022-08-03T12:40:02.434Z,33.34
2022-08-03T12:40:48.228Z,33.38
2022-08-03T12:41:48.263Z,33.50
2022-08-03T12:42:48.299Z,33.51
2022-08-03T12:43:48.336Z,33.60
2022-08-03T12:44:48.372Z,33.56
2022-08-03T12:45:48.410Z,33.54
2022-08-03T12:46:48.613Z,33.65
2022-08-03T12:47:48.482Z,33.54
2022-08-03T12:48:48.516Z,33.41
2022-08-03T12:49:48.553Z,33.31
2022-08-03T12:50:48.590Z,33.26
2022-08-03T12:51:48.623Z,33.22
2022-08-03T12:52:48.659Z,33.28
2022-08-03T12:53:48.698Z,33.26
2022-08-03T12:54:48.737Z,33.26
2022-08-03T12:56:04.180Z,33.22
2022-08-03T12:56:48.805Z,33.23
2022-08-03T12:57:48.837Z,33.37
2022-08-03T12:58:48.872Z,33.39
2022-08-03T12:59:53.560Z,33.50
2022-08-03T13:00:48.951Z,33.45
2022-08-03T13:01:49.175Z,33.42
2022-08-03T13:03:05.451Z,33.29
2022-08-03T13:03:50.491Z,33.29
2022-08-03T13:04:49.090Z,33.35
2022-08-03T13:05:49.132Z,33.35
2022-08-03T13:06:49.164Z,33.41
2022-08-03T13:07:49.205Z,33.56
2022-08-03T13:08:49.232Z,33.59
2022-08-03T13:09:49.289Z,33.60
2022-08-03T13:10:49.326Z,33.51
2022-08-03T13:11:57.736Z,33.42
2022-08-03T13:12:49.379Z,33.38
2022-08-03T13:13:49.415Z,33.51
2022-08-03T13:14:49.453Z,33.50
2022-08-03T13:15:49.489Z,33.53
2022-08-03T13:16:49.717Z,33.56
2022-08-03T13:17:49.556Z,33.63
2022-08-03T13:18:49.595Z,33.72
2022-08-03T13:19:49.636Z,33.76
2022-08-03T13:20:49.676Z,33.75
2022-08-03T13:22:01.790Z,33.71
2022-08-03T13:22:49.756Z,33.79
2022-08-03T13:23:49.791Z,33.78
2022-08-03T13:24:49.823Z,33.79
2022-08-03T13:25:55.365Z,33.68
2022-08-03T13:26:49.889Z,33.79
2022-08-03T13:28:03.759Z,33.78
2022-08-03T13:28:49.963Z,33.82
2022-08-03T13:29:49.998Z,33.86
2022-08-03T13:30:50.034Z,33.82
2022-08-03T13:31:50.595Z,33.91
2022-08-03T13:32:50.107Z,33.97
2022-08-03T13:33:50.145Z,33.98
2022-08-03T13:34:50.177Z,33.98
2022-08-03T13:35:50.236Z,33.90
2022-08-03T13:37:08.323Z,34.06
2022-08-03T13:37:50.383Z,34.05
2022-08-03T13:38:50.324Z,33.90
2022-08-03T13:39:59.558Z,33.86